createdAt,value
2022-08-17T00:00:42.878Z,10.97
2022-08-17T00:03:10.042Z,10.47
2022-08-17T00:05:42.280Z,10.70
2022-08-17T00:08:10.646Z,15.50
2022-08-17T00:10:39.127Z,11.93
2022-08-17T00:13:09.042Z,10.53
2022-08-17T00:15:37.275Z,10.70
2022-08-17T00:19:00.360Z,10.80
2022-08-17T00:20:55.417Z,11.00
2022-08-17T00:23:24.301Z,10.73
2022-08-17T00:25:52.702Z,10.00
2022-08-17T00:28:21.568Z,10.87
2022-08-17T00:30:53.330Z,12.73
2022-08-17T00:33:24.219Z,13.03
2022-08-17T00:35:54.468Z,14.30
2022-08-17T00:38:22.824Z,11.80
2022-08-17T00:40:55.628Z,10.40
2022-08-17T00:43:30.097Z,29.90
2022-08-17T00:45:58.373Z,11.53
2022-08-17T00:48:29.471Z,11.30
2022-08-17T00:51:06.760Z,10.50
2022-08-17T00:53:37.547Z,9.40
2022-08-17T00:56:07.826Z,10.60
2022-08-17T00:58:37.397Z,10.50
2022-08-17T01:01:06.823Z,13.50
2022-08-17T01:03:35.077Z,13.13
2022-08-17T01:06:05.508Z,10.10
2022-08-17T01:08:34.041Z,11.07
2022-08-17T01:11:03.398Z,12.87
2022-08-17T01:13:40.633Z,10.70
2022-08-17T01:16:15.929Z,12.00
2022-08-17T01:18:44.965Z,10.37
2022-08-17T01:21:20.137Z,11.70
2022-08-17T01:23:49.692Z,11.13
2022-08-17T01:26:17.886Z,11.97
2022-08-17T01:28:54.829Z,11.53
2022-08-17T01:31:24.925Z,11.93
2022-08-17T01:33:53.371Z,12.07
2022-08-17T01:36:21.722Z,11.77
2022-08-17T01:38:51.340Z,10.97
2022-08-17T01:41:19.635Z,11.40
2022-08-17T01:43:51.015Z,11.03
2022-08-17T01:46:23.606Z,11.47
2022-08-17T01:48:51.890Z,12.13
2022-08-17T01:51:20.257Z,12.90
2022-08-17T01:53:52.625Z,12.70
2022-08-17T01:56:22.828Z,11.27
2022-08-17T01:58:51.081Z,11.60
2022-08-17T02:01:20.393Z,12.83
2022-08-17T02:03:53.359Z,11.17
2022-08-17T02:06:28.973Z,10.43
2022-08-17T02:09:03.093Z,9.37
2022-08-17T02:11:32.433Z,11.30
2022-08-17T02:14:03.231Z,11.33
2022-08-17T02:16:36.859Z,10.80
2022-08-17T02:19:07.682Z,10.33
2022-08-17T02:21:36.332Z,11.10
2022-08-17T02:24:06.485Z,10.50
2022-08-17T02:26:34.707Z,12.60
2022-08-17T02:29:04.056Z,11.37
2022-08-17T02:31:32.471Z,9.97
2022-08-17T02:34:03.926Z,15.30
2022-08-17T02:36:34.178Z,10.70
2022-08-17T02:39:03.240Z,11.03
2022-08-17T02:41:32.986Z,11.23
2022-08-17T02:44:01.264Z,10.37
2022-08-17T02:46:30.472Z,10.73
2022-08-17T02:48:58.743Z,10.70
2022-08-17T02:51:27.142Z,10.57
2022-08-17T02:54:02.068Z,10.20
2022-08-17T02:56:44.937Z,11.70
2022-08-17T02:59:13.380Z,12.20
2022-08-17T03:01:41.971Z,13.43
2022-08-17T03:04:10.258Z,12.50
2022-08-17T03:06:38.500Z,11.47
2022-08-17T03:09:06.698Z,16.03
2022-08-17T03:11:35.440Z,12.40
2022-08-17T03:14:04.993Z,12.83
2022-08-17T03:16:33.592Z,12.50
2022-08-17T03:19:02.925Z,10.93
2022-08-17T03:21:31.153Z,12.30
2022-08-17T03:23:59.395Z,12.77
2022-08-17T03:26:29.848Z,12.10
2022-08-17T03:28:58.202Z,14.40
2022-08-17T03:31:27.744Z,15.53
2022-08-17T03:33:56.458Z,12.03
2022-08-17T03:36:24.797Z,13.37
2022-08-17T03:38:53.023Z,13.07
2022-08-17T03:41:23.075Z,12.53
2022-08-17T03:43:51.270Z,11.67
2022-08-17T03:46:37.282Z,12.07
2022-08-17T03:49:25.494Z,14.00
2022-08-17T03:52:11.249Z,9.90
2022-08-17T03:54:56.892Z,11.00
2022-08-17T03:57:25.788Z,12.57
2022-08-17T03:59:54.282Z,11.03
2022-08-17T04:02:30.410Z,12.93
2022-08-17T04:04:59.993Z,10.43
2022-08-17T04:07:30.212Z,11.37
2022-08-17T04:09:59.392Z,13.23
2022-08-17T04:12:30.801Z,11.23
2022-08-17T04:14:59.492Z,12.40
2022-08-17T04:17:29.042Z,10.93
2022-08-17T04:19:57.370Z,11.30
2022-08-17T04:22:30.930Z,11.20
2022-08-17T04:25:05.088Z,19.30
2022-08-17T04:27:33.334Z,11.80
2022-08-17T04:30:01.699Z,11.17
2022-08-17T04:33:00.802Z,13.20
2022-08-17T04:35:21.394Z,12.43
2022-08-17T04:37:51.355Z,12.10
2022-08-17T04:40:37.265Z,13.63
2022-08-17T04:43:07.207Z,14.07
2022-08-17T04:45:35.461Z,16.93
2022-08-17T04:48:04.727Z,13.73
2022-08-17T04:50:32.990Z,14.33
2022-08-17T04:53:02.612Z,14.40
2022-08-17T04:55:31.384Z,14.57
2022-08-17T04:57:59.593Z,21.27
2022-08-17T05:00:27.772Z,14.50
2022-08-17T05:02:56.591Z,18.00
2022-08-17T05:05:26.473Z,25.03
2022-08-17T05:07:55.153Z,14.57
2022-08-17T05:10:25.401Z,16.07
2022-08-17T05:12:59.624Z,15.20
2022-08-17T05:15:28.319Z,19.03
2022-08-17T05:18:01.574Z,16.90
2022-08-17T05:20:29.981Z,24.00
2022-08-17T05:22:59.790Z,18.40
2022-08-17T05:25:33.299Z,18.70
2022-08-17T05:28:05.053Z,17.50
2022-08-17T05:30:35.061Z,26.40
2022-08-17T05:33:05.472Z,34.40
2022-08-17T05:35:36.522Z,23.53
2022-08-17T05:38:05.240Z,25.20
2022-08-17T05:40:34.847Z,26.90
2022-08-17T05:43:08.108Z,21.67
2022-08-17T05:45:55.271Z,21.33
2022-08-17T05:48:39.272Z,21.67
2022-08-17T05:51:45.876Z,18.10
2022-08-17T05:54:27.055Z,17.07
2022-08-17T05:57:36.933Z,16.10
2022-08-17T06:00:15.887Z,18.13
2022-08-17T06:02:58.992Z,15.37
2022-08-17T06:05:50.372Z,14.43
2022-08-17T06:08:24.587Z,16.37
2022-08-17T06:10:59.146Z,12.90
2022-08-17T06:13:42.762Z,12.53
2022-08-17T06:16:25.850Z,13.87
2022-08-17T06:19:01.993Z,13.77
2022-08-17T06:21:34.927Z,13.33
2022-08-17T06:24:06.643Z,15.60
2022-08-17T06:26:42.789Z,13.47
2022-08-17T06:29:35.439Z,16.67
2022-08-17T06:32:04.517Z,14.37
2022-08-17T06:34:33.881Z,18.40
2022-08-17T06:37:09.624Z,13.17
2022-08-17T06:39:47.606Z,12.40
2022-08-17T06:43:05.150Z,10.80
2022-08-17T06:45:16.854Z,10.03
2022-08-17T06:47:50.837Z,18.03
2022-08-17T06:50:21.263Z,10.63
2022-08-17T06:52:57.184Z,12.37
2022-08-17T06:55:32.176Z,14.50
2022-08-17T06:58:15.885Z,10.80
2022-08-17T07:00:47.259Z,9.67
2022-08-17T07:03:21.081Z,9.17
2022-08-17T07:05:52.517Z,11.07
2022-08-17T07:08:35.074Z,10.60
2022-08-17T07:11:06.591Z,9.60
2022-08-17T07:13:51.209Z,9.33
2022-08-17T07:16:25.447Z,9.83
2022-08-17T07:18:54.786Z,9.40
2022-08-17T07:21:46.089Z,9.07
2022-08-17T07:24:37.240Z,6.87
2022-08-17T07:27:12.947Z,8.33
2022-08-17T07:29:46.369Z,8.37
2022-08-17T07:32:18.926Z,10.23
2022-08-17T07:35:21.132Z,7.10
2022-08-17T07:37:53.223Z,6.77
2022-08-17T07:40:33.468Z,6.47
2022-08-17T07:43:24.152Z,6.17
2022-08-17T07:46:30.969Z,6.80
2022-08-17T07:49:20.438Z,6.07
2022-08-17T07:52:24.171Z,6.50
2022-08-17T07:54:52.281Z,7.77
2022-08-17T07:57:35.679Z,6.40
2022-08-17T08:00:29.153Z,6.27
2022-08-17T08:03:13.621Z,5.93
2022-08-17T08:05:53.207Z,9.23
2022-08-17T08:08:29.131Z,5.50
2022-08-17T08:11:06.201Z,6.90
2022-08-17T08:13:34.630Z,7.60
2022-08-17T08:16:24.403Z,8.33
2022-08-17T08:18:57.312Z,8.47
2022-08-17T08:21:48.716Z,4.23
2022-08-17T08:24:44.429Z,4.63
2022-08-17T08:27:19.680Z,5.10
2022-08-17T08:29:54.000Z,16.87
2022-08-17T08:32:31.175Z,14.30
2022-08-17T08:35:03.963Z,8.03
2022-08-17T08:37:43.644Z,4.10
2022-08-17T08:40:25.045Z,5.20
2022-08-17T08:42:58.032Z,4.60
2022-08-17T08:45:30.477Z,13.17
2022-08-17T08:48:23.031Z,6.00
2022-08-17T08:51:05.223Z,12.60
2022-08-17T08:53:39.989Z,6.03
2022-08-17T08:56:16.810Z,5.33
2022-08-17T08:58:53.202Z,4.77
2022-08-17T09:01:26.365Z,7.10
2022-08-17T09:04:21.498Z,4.90
2022-08-17T09:07:00.262Z,3.50
2022-08-17T09:09:39.589Z,10.30
2022-08-17T09:12:11.232Z,3.93
2022-08-17T09:14:46.694Z,4.30
2022-08-17T09:17:18.520Z,7.30
2022-08-17T09:19:49.874Z,3.73
2022-08-17T09:22:31.464Z,2.57
2022-08-17T09:25:07.928Z,3.37
2022-08-17T09:27:47.855Z,6.53
2022-08-17T09:30:16.440Z,2.73
2022-08-17T09:32:47.095Z,3.20
2022-08-17T09:35:19.379Z,2.80
2022-08-17T09:37:57.041Z,4.30
2022-08-17T09:40:30.120Z,2.80
2022-08-17T09:43:02.746Z,5.40
2022-08-17T09:45:34.107Z,2.70
2022-08-17T09:48:07.288Z,8.73
2022-08-17T09:51:01.649Z,2.30
2022-08-17T09:53:31.772Z,2.30
2022-08-17T09:56:12.396Z,3.10
2022-08-17T09:58:51.641Z,2.50
2022-08-17T10:01:26.739Z,2.23
2022-08-17T10:04:30.616Z,5.27
2022-08-17T10:07:03.257Z,2.63
2022-08-17T10:09:42.992Z,2.47
2022-08-17T10:12:21.401Z,1.87
2022-08-17T10:15:07.618Z,1.90
2022-08-17T10:17:41.681Z,2.90
2022-08-17T10:20:14.176Z,3.17
2022-08-17T10:23:04.175Z,2.23
2022-08-17T10:25:55.212Z,7.90
2022-08-17T10:28:30.035Z,3.13
2022-08-17T10:31:30.833Z,2.87
2022-08-17T10:34:19.523Z,2.13
2022-08-17T10:36:52.480Z,2.47
2022-08-17T10:39:28.152Z,2.67
2022-08-17T10:41:58.807Z,8.53
2022-08-17T10:44:38.415Z,1.93
2022-08-17T10:47:13.084Z,2.47
2022-08-17T10:49:47.961Z,1.70
2022-08-17T10:52:48.673Z,2.20
2022-08-17T10:55:18.935Z,2.13
2022-08-17T10:57:49.560Z,4.13
2022-08-17T11:01:11.430Z,2.40
2022-08-17T11:03:54.756Z,2.50
2022-08-17T11:06:30.006Z,2.83
2022-08-17T11:09:29.467Z,3.50
2022-08-17T11:12:15.718Z,4.20
2022-08-17T11:15:02.815Z,4.20
2022-08-17T11:18:01.635Z,2.40
2022-08-17T11:21:25.718Z,5.10
2022-08-17T11:24:06.794Z,2.43
2022-08-17T11:26:36.749Z,3.20
2022-08-17T11:29:09.626Z,6.10
2022-08-17T11:31:41.588Z,2.63
2022-08-17T11:34:19.607Z,3.37
2022-08-17T11:37:36.320Z,2.10
2022-08-17T11:40:56.465Z,3.33
2022-08-17T11:43:49.567Z,2.47
2022-08-17T11:46:23.902Z,2.53
2022-08-17T11:49:18.809Z,2.83
2022-08-17T11:52:35.674Z,2.33
2022-08-17T11:55:31.972Z,3.33
2022-08-17T11:58:00.986Z,2.80
2022-08-17T12:00:56.754Z,2.37
2022-08-17T12:03:54.166Z,3.27
2022-08-17T12:06:45.913Z,3.40
2022-08-17T12:09:19.587Z,4.43
2022-08-17T12:12:04.614Z,2.57
2022-08-17T12:15:08.840Z,2.43
2022-08-17T12:17:41.471Z,2.00
2022-08-17T12:20:16.321Z,2.70
2022-08-17T12:22:53.788Z,2.40
2022-08-17T12:25:26.796Z,2.30
2022-08-17T12:28:06.352Z,2.93
2022-08-17T12:30:35.469Z,2.47
2022-08-17T12:33:03.715Z,5.13
2022-08-17T12:35:35.177Z,2.47
2022-08-17T12:38:03.855Z,2.40
2022-08-17T12:40:33.640Z,4.37
2022-08-17T12:43:04.352Z,2.47
2022-08-17T12:45:34.948Z,1.93
2022-08-17T12:48:07.847Z,4.20
2022-08-17T12:50:37.147Z,4.43
2022-08-17T12:53:06.418Z,5.30
2022-08-17T12:55:38.858Z,2.20
2022-08-17T12:58:09.922Z,3.83
2022-08-17T13:00:47.591Z,2.57
2022-08-17T13:03:19.221Z,2.87
2022-08-17T13:05:57.587Z,6.30
2022-08-17T13:08:30.128Z,2.03
2022-08-17T13:11:01.508Z,2.50
2022-08-17T13:13:35.109Z,2.30
2022-08-17T13:16:05.454Z,2.57
2022-08-17T13:18:41.857Z,3.00
2022-08-17T13:21:18.121Z,2.53
2022-08-17T13:23:57.153Z,2.97
2022-08-17T13:26:30.734Z,3.17
2022-08-17T13:28:58.900Z,5.40
2022-08-17T13:31:42.854Z,6.77
2022-08-17T13:34:34.430Z,2.70
2022-08-17T13:37:30.147Z,2.60
2022-08-17T13:40:00.784Z,2.27
2022-08-17T13:42:48.128Z,4.60
2022-08-17T13:45:50.333Z,2.97
2022-08-17T13:48:28.852Z,2.70
2022-08-17T13:51:22.512Z,5.27
2022-08-17T13:53:58.111Z,2.37
2022-08-17T13:56:40.492Z,3.00
2022-08-17T13:59:12.628Z,2.80
2022-08-17T14:01:43.272Z,2.87
2022-08-17T14:04:13.652Z,3.70
2022-08-17T14:06:53.051Z,2.80
2022-08-17T14:09:24.482Z,2.40
2022-08-17T14:11:54.009Z,3.20
2022-08-17T14:14:24.573Z,3.27
2022-08-17T14:16:52.897Z,2.50
2022-08-17T14:19:21.800Z,2.57
2022-08-17T14:21:50.125Z,3.10
2022-08-17T14:24:24.126Z,2.90
2022-08-17T14:26:53.222Z,2.70
2022-08-17T14:29:23.134Z,3.10
2022-08-17T14:31:53.287Z,3.10
2022-08-17T14:34:23.276Z,2.70
2022-08-17T14:36:51.504Z,3.27
2022-08-17T14:39:19.973Z,5.87
2022-08-17T14:41:48.160Z,2.73
2022-08-17T14:44:16.356Z,2.83
2022-08-17T14:46:48.035Z,3.20
2022-08-17T14:49:17.140Z,3.13
2022-08-17T14:51:45.321Z,2.73
2022-08-17T14:54:33.076Z,4.73
2022-08-17T14:57:23.346Z,3.30
2022-08-17T14:59:52.301Z,3.47
2022-08-17T15:02:29.388Z,2.87
2022-08-17T15:05:00.426Z,3.00
2022-08-17T15:07:30.966Z,5.33
2022-08-17T15:10:01.346Z,2.73
2022-08-17T15:12:33.220Z,2.57
2022-08-17T15:15:04.855Z,3.40
2022-08-17T15:17:43.816Z,4.00
2022-08-17T15:20:15.500Z,2.70
2022-08-17T15:22:44.134Z,3.53
2022-08-17T15:25:12.707Z,3.50
2022-08-17T15:27:40.936Z,2.70
2022-08-17T15:30:10.546Z,3.50
2022-08-17T15:32:46.819Z,6.13
2022-08-17T15:35:19.859Z,4.30
2022-08-17T15:37:53.822Z,3.53
2022-08-17T15:40:22.086Z,5.07
2022-08-17T15:42:51.048Z,4.90
2022-08-17T15:45:19.298Z,2.50
2022-08-17T15:47:48.847Z,4.30
2022-08-17T15:50:17.111Z,2.60
2022-08-17T15:52:47.446Z,3.73
2022-08-17T15:55:17.208Z,4.10
2022-08-17T15:57:47.895Z,3.20
2022-08-17T16:00:17.366Z,2.87
2022-08-17T16:03:46.346Z,8.60
2022-08-17T16:05:35.377Z,3.17
2022-08-17T16:08:03.805Z,3.57
2022-08-17T16:10:35.687Z,3.47
2022-08-17T16:13:05.038Z,3.57
2022-08-17T16:15:46.355Z,2.93
2022-08-17T16:18:23.289Z,3.10
2022-08-17T16:20:53.287Z,5.40
2022-08-17T16:23:21.496Z,7.00
2022-08-17T16:25:53.838Z,3.60
2022-08-17T16:28:30.834Z,3.30
2022-08-17T16:31:05.904Z,5.13
2022-08-17T16:33:37.684Z,3.30
2022-08-17T16:36:08.499Z,3.60
2022-08-17T16:38:37.018Z,5.90
2022-08-17T16:41:05.748Z,3.53
2022-08-17T16:43:34.112Z,4.87
2022-08-17T16:46:02.712Z,6.17
2022-08-17T16:48:31.099Z,3.93
2022-08-17T16:51:02.978Z,7.90
2022-08-17T16:53:33.894Z,3.73
2022-08-17T16:56:05.232Z,4.10
2022-08-17T16:58:33.400Z,4.50
2022-08-17T17:01:01.669Z,6.93
2022-08-17T17:03:30.013Z,4.33
2022-08-17T17:06:07.459Z,3.63
2022-08-17T17:08:44.066Z,4.17
2022-08-17T17:11:15.908Z,3.90
2022-08-17T17:13:47.920Z,3.63
2022-08-17T17:16:27.432Z,3.40
2022-08-17T17:19:09.185Z,4.47
2022-08-17T17:21:42.856Z,4.77
2022-08-17T17:24:16.476Z,4.10
2022-08-17T17:27:01.473Z,3.67
2022-08-17T17:29:48.779Z,4.83
2022-08-17T17:32:21.835Z,4.43
2022-08-17T17:34:52.588Z,6.77
2022-08-17T17:37:25.654Z,3.43
2022-08-17T17:39:57.250Z,4.60
2022-08-17T17:42:31.353Z,4.53
2022-08-17T17:45:10.041Z,4.50
2022-08-17T17:47:38.322Z,4.67
2022-08-17T17:50:08.122Z,4.20
2022-08-17T17:52:45.387Z,4.50
2022-08-17T17:55:36.338Z,5.07
2022-08-17T17:58:13.702Z,7.47
2022-08-17T18:00:45.293Z,8.90
2022-08-17T18:03:27.167Z,7.37
2022-08-17T18:06:08.171Z,9.20
2022-08-17T18:08:49.276Z,5.47
2022-08-17T18:11:46.394Z,6.60
2022-08-17T18:14:27.325Z,6.17
2022-08-17T18:16:57.789Z,6.70
2022-08-17T18:19:28.028Z,7.63
2022-08-17T18:22:04.030Z,9.30
2022-08-17T18:24:36.878Z,10.37
2022-08-17T18:27:20.178Z,5.73
2022-08-17T18:29:48.597Z,4.80
2022-08-17T18:32:37.546Z,5.43
2022-08-17T18:35:35.058Z,5.53
2022-08-17T18:38:22.485Z,5.20
2022-08-17T18:41:04.450Z,4.50
2022-08-17T18:43:44.265Z,7.40
2022-08-17T18:46:28.355Z,5.90
2022-08-17T18:49:03.801Z,5.00
2022-08-17T18:51:41.881Z,6.30
2022-08-17T18:54:20.491Z,4.93
2022-08-17T18:56:55.825Z,4.60
2022-08-17T18:59:36.502Z,4.80
2022-08-17T19:02:39.047Z,4.10
2022-08-17T19:05:13.925Z,4.47
2022-08-17T19:07:43.541Z,4.50
2022-08-17T19:10:20.870Z,5.10
2022-08-17T19:12:53.363Z,5.10
2022-08-17T19:15:28.150Z,5.37
2022-08-17T19:18:00.353Z,5.67
2022-08-17T19:20:31.601Z,7.80
2022-08-17T19:23:14.346Z,5.60
2022-08-17T19:25:47.426Z,6.47
2022-08-17T19:28:22.936Z,6.70
2022-08-17T19:30:57.814Z,7.30
2022-08-17T19:33:26.335Z,5.30
2022-08-17T19:36:02.401Z,5.37
2022-08-17T19:38:46.671Z,5.30
2022-08-17T19:41:22.506Z,5.17
2022-08-17T19:44:19.900Z,6.87
2022-08-17T19:46:56.196Z,6.17
2022-08-17T19:49:40.962Z,5.40
2022-08-17T19:52:30.877Z,5.00
2022-08-17T19:55:02.327Z,5.43
2022-08-17T19:57:40.377Z,8.53
2022-08-17T20:00:12.020Z,5.97
2022-08-17T20:02:48.454Z,7.17
2022-08-17T20:05:18.427Z,8.80
2022-08-17T20:07:52.346Z,7.57
2022-08-17T20:10:30.079Z,7.40
2022-08-17T20:13:04.532Z,5.83
2022-08-17T20:15:36.192Z,6.27
2022-08-17T20:18:12.181Z,6.70
2022-08-17T20:20:47.003Z,5.20
2022-08-17T20:23:25.201Z,7.47
2022-08-17T20:25:59.095Z,6.03
2022-08-17T20:28:30.440Z,6.47
2022-08-17T20:30:58.893Z,6.93
2022-08-17T20:33:30.736Z,7.63
2022-08-17T20:36:06.578Z,7.07
2022-08-17T20:38:43.134Z,6.63
2022-08-17T20:41:14.521Z,15.00
2022-08-17T20:43:52.287Z,6.97
2022-08-17T20:46:49.830Z,5.93
2022-08-17T20:49:27.861Z,6.87
2022-08-17T20:52:02.349Z,7.13
2022-08-17T20:54:49.014Z,5.90
2022-08-17T20:57:51.822Z,8.63
2022-08-17T21:00:46.496Z,6.70
2022-08-17T21:03:52.715Z,6.17
2022-08-17T21:06:24.319Z,6.90
2022-08-17T21:08:57.902Z,6.70
2022-08-17T21:12:04.100Z,6.00
2022-08-17T21:14:56.159Z,7.43
2022-08-17T21:17:44.621Z,7.00
2022-08-17T21:20:32.637Z,6.03
2022-08-17T21:23:20.383Z,7.47
2022-08-17T21:26:23.667Z,8.47
2022-08-17T21:29:29.639Z,8.37
2022-08-17T21:32:24.635Z,7.70
2022-08-17T21:35:28.835Z,10.60
2022-08-17T21:38:14.192Z,6.77
2022-08-17T21:40:45.422Z,6.47
2022-08-17T21:43:24.484Z,11.70
2022-08-17T21:46:02.623Z,7.50
2022-08-17T21:48:32.444Z,7.23
2022-08-17T21:51:08.915Z,9.07
2022-08-17T21:53:41.485Z,8.73
2022-08-17T21:56:10.658Z,7.20
2022-08-17T21:58:40.981Z,13.13
2022-08-17T22:01:27.873Z,8.50
2022-08-17T22:04:03.288Z,7.50
2022-08-17T22:06:37.070Z,8.23
2022-08-17T22:09:19.285Z,7.10
2022-08-17T22:12:00.448Z,7.53
2022-08-17T22:14:53.043Z,6.97
2022-08-17T22:17:21.364Z,8.33
2022-08-17T22:19:51.459Z,14.97
2022-08-17T22:22:30.197Z,7.23
2022-08-17T22:25:01.591Z,10.50
2022-08-17T22:27:51.618Z,7.37
2022-08-17T22:30:33.187Z,10.07
2022-08-17T22:33:02.095Z,7.60
2022-08-17T22:35:39.038Z,7.90
2022-08-17T22:38:37.094Z,8.13
2022-08-17T22:41:36.911Z,6.80
2022-08-17T22:44:18.044Z,9.03
2022-08-17T22:47:00.963Z,8.70
2022-08-17T22:49:33.473Z,9.83
2022-08-17T22:52:05.690Z,7.07
2022-08-17T22:54:51.303Z,6.47
2022-08-17T22:57:38.394Z,7.27
2022-08-17T23:00:08.275Z,8.03
2022-08-17T23:02:36.561Z,7.47
2022-08-17T23:05:24.368Z,9.03
2022-08-17T23:07:53.278Z,12.10
2022-08-17T23:10:21.509Z,12.30
2022-08-17T23:12:51.090Z,10.20
2022-08-17T23:15:20.069Z,8.17
2022-08-17T23:17:48.421Z,8.40
2022-08-17T23:20:17.591Z,8.37
2022-08-17T23:22:52.742Z,8.47
2022-08-17T23:25:26.468Z,14.90
2022-08-17T23:27:57.377Z,7.47
2022-08-17T23:30:28.537Z,8.40
2022-08-17T23:32:59.551Z,8.17
2022-08-17T23:35:40.578Z,7.53
2022-08-17T23:38:10.432Z,7.10
2022-08-17T23:40:39.611Z,8.77
2022-08-17T23:43:23.397Z,9.67
2022-08-17T23:45:54.159Z,7.80
2022-08-17T23:48:32.681Z,8.13
2022-08-17T23:51:06.115Z,9.07
2022-08-17T23:53:36.258Z,8.70
2022-08-17T23:56:10.275Z,8.33
2022-08-17T23:58:42.108Z,9.80
